createdAt,value
2018-10-09T00:02:12.286Z,97485.60
2018-10-09T00:04:39.496Z,97488.32
2018-10-09T00:07:06.767Z,97488.30
2018-10-09T00:09:33.974Z,97487.35
2018-10-09T00:12:01.233Z,97481.84
2018-10-09T00:14:28.521Z,97484.88
2018-10-09T00:16:55.783Z,97477.76
2018-10-09T00:19:22.999Z,97478.94
2018-10-09T00:21:50.252Z,97489.19
2018-10-09T00:24:17.469Z,97488.77
2018-10-09T00:26:44.716Z,97492.38
2018-10-09T00:29:11.945Z,97493.92
2018-10-09T00:31:39.269Z,97493.23
2018-10-09T00:34:06.547Z,97492.17
2018-10-09T00:36:34.349Z,97496.42
2018-10-09T00:39:01.585Z,97492.89
2018-10-09T00:41:28.783Z,97496.82
2018-10-09T00:43:56.058Z,97491.88
2018-10-09T00:46:23.282Z,97501.15
2018-10-09T00:48:50.481Z,97497.73
2018-10-09T00:51:17.748Z,97495.53
2018-10-09T00:53:44.996Z,97493.03
2018-10-09T00:56:12.283Z,97488.55
2018-10-09T00:58:39.592Z,97492.70
2018-10-09T01:01:06.836Z,97490.19
2018-10-09T01:03:34.077Z,97486.77
2018-10-09T01:06:01.437Z,97493.48
2018-10-09T01:08:28.681Z,97490.60
2018-10-09T01:10:55.920Z,97493.95
2018-10-09T01:13:23.182Z,97491.97
2018-10-09T01:15:50.372Z,97484.59
2018-10-09T01:18:17.616Z,97487.35
2018-10-09T01:20:44.894Z,97489.95
2018-10-09T01:23:12.163Z,97484.10
2018-10-09T01:25:39.395Z,97481.13
2018-10-09T01:28:06.614Z,97479.68
2018-10-09T01:30:34.249Z,97486.03
2018-10-09T01:33:01.897Z,97478.66
2018-10-09T01:35:29.149Z,97483.61
2018-10-09T01:37:56.366Z,97465.27
2018-10-09T01:40:23.630Z,97468.98
2018-10-09T01:42:50.850Z,97470.91
2018-10-09T01:45:18.099Z,97468.19
2018-10-09T01:47:45.374Z,97471.56
2018-10-09T01:50:12.596Z,97466.62
2018-10-09T01:52:39.815Z,97457.88
2018-10-09T01:55:07.223Z,97463.91
2018-10-09T01:57:34.588Z,97464.16
2018-10-09T02:00:01.908Z,97468.61
2018-10-09T02:02:29.105Z,97463.35
2018-10-09T02:04:56.375Z,97467.91
2018-10-09T02:07:23.634Z,97466.05
2018-10-09T02:09:51.744Z,97459.30
2018-10-09T02:12:18.999Z,97454.78
2018-10-09T02:14:46.163Z,97471.05
2018-10-09T02:17:13.436Z,97474.59
2018-10-09T02:19:40.633Z,97465.73
2018-10-09T02:22:07.836Z,97470.08
2018-10-09T02:24:34.993Z,97477.19
2018-10-09T02:27:02.266Z,97477.87
2018-10-09T02:29:29.570Z,97470.94
2018-10-09T02:31:56.774Z,97478.91
2018-10-09T02:34:24.001Z,97474.95
2018-10-09T02:36:51.287Z,97475.09
2018-10-09T02:39:18.529Z,97481.77
2018-10-09T02:41:45.753Z,97483.09
2018-10-09T02:44:12.962Z,97478.66
2018-10-09T02:46:40.163Z,97492.30
2018-10-09T02:49:07.435Z,97489.79
2018-10-09T02:51:35.028Z,97492.42
2018-10-09T02:54:02.279Z,97486.15
2018-10-09T02:56:29.516Z,97487.03
2018-10-09T02:58:56.729Z,97486.23
2018-10-09T03:01:23.949Z,97487.38
2018-10-09T03:03:51.232Z,97483.00
2018-10-09T03:06:18.469Z,97497.66
2018-10-09T03:08:45.716Z,97497.19
2018-10-09T03:11:12.980Z,97503.61
2018-10-09T03:13:40.316Z,97501.67
2018-10-09T03:16:07.742Z,97506.24
2018-10-09T03:18:34.976Z,97512.20
2018-10-09T03:21:02.225Z,97507.02
2018-10-09T03:23:29.487Z,97507.30
2018-10-09T03:25:56.672Z,97513.54
2018-10-09T03:28:23.914Z,97510.30
2018-10-09T03:30:51.243Z,97503.57
2018-10-09T03:33:18.528Z,97497.42
2018-10-09T03:35:45.707Z,97501.72
2018-10-09T03:38:12.920Z,97491.19
2018-10-09T03:40:40.191Z,97487.13
2018-10-09T03:43:07.440Z,97492.04
2018-10-09T03:45:34.855Z,97497.12
2018-10-09T03:48:02.066Z,97498.66
2018-10-09T03:50:29.347Z,97503.27
2018-10-09T03:52:56.638Z,97508.17
2018-10-09T03:55:23.896Z,97507.11
2018-10-09T03:57:51.201Z,97512.77
2018-10-09T04:00:18.517Z,97507.81
2018-10-09T04:02:45.727Z,97503.64
2018-10-09T04:05:12.980Z,97496.09
2018-10-09T04:07:40.260Z,97501.92
2018-10-09T04:10:07.721Z,97495.59
2018-10-09T04:12:34.983Z,97505.84
2018-10-09T04:15:02.417Z,97503.77
2018-10-09T04:17:29.648Z,97500.76
2018-10-09T04:19:56.881Z,97502.70
2018-10-09T04:22:24.121Z,97507.65
2018-10-09T04:24:51.356Z,97499.98
2018-10-09T04:27:19.644Z,97515.93
2018-10-09T04:29:46.998Z,97504.70
2018-10-09T04:32:14.265Z,97519.88
2018-10-09T04:34:41.635Z,97519.16
2018-10-09T04:37:09.085Z,97518.50
2018-10-09T04:39:36.337Z,97511.57
2018-10-09T04:42:03.666Z,97508.44
2018-10-09T04:44:30.969Z,97506.69
2018-10-09T04:46:58.456Z,97503.45
2018-10-09T04:49:25.764Z,97502.95
2018-10-09T04:51:53.073Z,97505.30
2018-10-09T04:54:20.362Z,97499.97
2018-10-09T04:56:47.682Z,97512.36
2018-10-09T04:59:14.958Z,97504.17
2018-10-09T05:01:42.210Z,97513.42
2018-10-09T05:04:09.609Z,97504.14
2018-10-09T05:06:36.928Z,97510.79
2018-10-09T05:09:07.472Z,97506.09
2018-10-09T05:11:34.717Z,97504.64
2018-10-09T05:14:02.005Z,97509.34
2018-10-09T05:16:29.224Z,97509.22
2018-10-09T05:18:56.452Z,97510.35
2018-10-09T05:21:23.712Z,97514.23
2018-10-09T05:23:50.977Z,97510.07
2018-10-09T05:26:18.293Z,97516.34
2018-10-09T05:28:45.598Z,97521.86
2018-10-09T05:31:12.892Z,97514.39
2018-10-09T05:33:40.069Z,97509.94
2018-10-09T05:36:07.364Z,97519.34
2018-10-09T05:38:34.653Z,97521.84
2018-10-09T05:41:01.953Z,97524.96
2018-10-09T05:43:29.167Z,97529.70
2018-10-09T05:45:56.473Z,97522.77
2018-10-09T05:48:23.741Z,97521.58
2018-10-09T05:50:50.953Z,97522.15
2018-10-09T05:53:18.284Z,97533.27
2018-10-09T05:55:45.542Z,97535.16
2018-10-09T05:58:12.895Z,97538.86
2018-10-09T06:00:40.008Z,97533.30
2018-10-09T06:03:07.313Z,97542.28
2018-10-09T06:05:34.589Z,97539.99
2018-10-09T06:08:01.850Z,97546.61
2018-10-09T06:10:29.092Z,97549.09
2018-10-09T06:12:56.290Z,97544.71
2018-10-09T06:15:23.604Z,97547.63
2018-10-09T06:17:50.957Z,97549.41
2018-10-09T06:20:18.207Z,97555.55
2018-10-09T06:22:45.484Z,97557.66
2018-10-09T06:25:12.756Z,97559.81
2018-10-09T06:27:40.118Z,97558.98
2018-10-09T06:30:07.482Z,97565.83
2018-10-09T06:32:34.783Z,97561.02
2018-10-09T06:35:03.102Z,97564.67
2018-10-09T06:37:30.503Z,97561.53
2018-10-09T06:39:57.890Z,97571.94
2018-10-09T06:42:25.268Z,97571.91
2018-10-09T06:44:52.642Z,97578.05
2018-10-09T06:47:19.929Z,97570.20
2018-10-09T06:49:47.177Z,97571.78
2018-10-09T06:52:14.525Z,97567.55
2018-10-09T06:54:42.010Z,97575.95
2018-10-09T06:57:09.287Z,97577.31
2018-10-09T06:59:36.744Z,97586.38
2018-10-09T07:02:04.101Z,97581.52
2018-10-09T07:04:31.651Z,97589.20
2018-10-09T07:07:02.389Z,97582.53
2018-10-09T07:09:33.098Z,97595.90
2018-10-09T07:12:00.393Z,97592.69
2018-10-09T07:14:27.753Z,97594.99
2018-10-09T07:16:55.126Z,97593.41
2018-10-09T07:19:22.472Z,97592.50
2018-10-09T07:21:49.857Z,97594.31
2018-10-09T07:24:17.180Z,97591.02
2018-10-09T07:26:44.561Z,97579.13
2018-10-09T07:29:11.966Z,97594.22
2018-10-09T07:31:39.329Z,97597.61
2018-10-09T07:34:06.734Z,97602.70
2018-10-09T07:36:34.094Z,97602.84
2018-10-09T07:39:01.405Z,97614.22
2018-10-09T07:41:28.809Z,97611.76
2018-10-09T07:43:56.263Z,97616.14
2018-10-09T07:46:23.545Z,97615.23
2018-10-09T07:48:51.011Z,97619.44
2018-10-09T07:51:18.390Z,97621.27
2018-10-09T07:53:45.676Z,97625.98
2018-10-09T07:56:13.059Z,97623.87
2018-10-09T07:58:40.416Z,97623.78
2018-10-09T08:01:07.887Z,97623.66
2018-10-09T08:03:35.249Z,97633.43
2018-10-09T08:06:02.614Z,97629.22
2018-10-09T08:08:29.993Z,97634.42
2018-10-09T08:10:57.398Z,97634.67
2018-10-09T08:13:24.817Z,97640.48
2018-10-09T08:15:52.258Z,97645.42
2018-10-09T08:18:19.525Z,97644.13
2018-10-09T08:20:46.923Z,97649.41
2018-10-09T08:23:14.304Z,97644.33
2018-10-09T08:25:41.722Z,97656.13
2018-10-09T08:28:09.162Z,97653.64
2018-10-09T08:30:36.401Z,97652.07
2018-10-09T08:33:03.965Z,97650.36
2018-10-09T08:35:31.360Z,97649.86
2018-10-09T08:37:58.691Z,97643.89
2018-10-09T08:40:26.178Z,97637.92
2018-10-09T08:42:53.482Z,97648.63
2018-10-09T08:45:21.062Z,97648.75
2018-10-09T08:47:48.523Z,97646.98
2018-10-09T08:50:15.874Z,97658.08
2018-10-09T08:52:43.254Z,97664.13
2018-10-09T08:55:10.940Z,97672.44
2018-10-09T08:57:38.291Z,97674.16
2018-10-09T09:00:06.416Z,97671.85
2018-10-09T09:02:33.801Z,97680.00
2018-10-09T09:05:01.242Z,97671.58
2018-10-09T09:07:28.610Z,97668.20
2018-10-09T09:09:56.026Z,97665.94
2018-10-09T09:12:23.473Z,97665.95
2018-10-09T09:14:50.862Z,97666.00
2018-10-09T09:17:18.210Z,97664.56
2018-10-09T09:19:45.606Z,97656.59
2018-10-09T09:22:13.020Z,97656.92
2018-10-09T09:24:40.430Z,97657.62
2018-10-09T09:27:08.008Z,97657.56
2018-10-09T09:29:35.230Z,97652.47
2018-10-09T09:32:02.581Z,97657.61
2018-10-09T09:34:29.947Z,97657.88
2018-10-09T09:36:57.387Z,97646.70
2018-10-09T09:39:24.802Z,97651.11
2018-10-09T09:41:52.316Z,97648.67
2018-10-09T09:44:19.740Z,97652.00
2018-10-09T09:46:47.163Z,97650.41
2018-10-09T09:49:14.502Z,97648.95
2018-10-09T09:51:41.949Z,97641.16
2018-10-09T09:54:09.307Z,97650.29
2018-10-09T09:56:36.721Z,97636.24
2018-10-09T09:59:04.169Z,97646.53
2018-10-09T10:01:36.962Z,97646.23
2018-10-09T10:04:04.391Z,97642.84
2018-10-09T10:06:31.788Z,97647.85
2018-10-09T10:08:59.156Z,97649.06
2018-10-09T10:11:26.528Z,97646.02
2018-10-09T10:13:53.894Z,97648.47
2018-10-09T10:16:21.465Z,97648.39
2018-10-09T10:18:48.859Z,97648.34
2018-10-09T10:21:16.600Z,97642.36
2018-10-09T10:23:43.921Z,97651.66
2018-10-09T10:26:11.292Z,97642.29
2018-10-09T10:28:38.857Z,97642.28
2018-10-09T10:31:06.276Z,97642.34
2018-10-09T10:33:33.693Z,97647.07
2018-10-09T10:36:01.120Z,97638.63
2018-10-09T10:38:28.483Z,97642.28
2018-10-09T10:40:55.803Z,97509.28
2018-10-09T10:43:23.371Z,97631.14
2018-10-09T10:45:50.692Z,97624.73
2018-10-09T10:48:18.075Z,97623.95
2018-10-09T10:50:45.381Z,97617.63
2018-10-09T10:53:12.748Z,97614.51
2018-10-09T10:55:40.094Z,97612.30
2018-10-09T10:58:07.738Z,97612.80
2018-10-09T11:00:35.082Z,97607.19
2018-10-09T11:03:02.443Z,97613.70
2018-10-09T11:05:29.812Z,97602.01
2018-10-09T11:07:57.182Z,97599.73
2018-10-09T11:10:24.582Z,97595.56
2018-10-09T11:12:51.967Z,97590.49
2018-10-09T11:15:19.360Z,97541.67
2018-10-09T11:17:46.758Z,97590.83
2018-10-09T11:20:14.102Z,97583.52
2018-10-09T11:22:41.545Z,97587.30
2018-10-09T11:25:08.989Z,97582.61
2018-10-09T11:27:36.425Z,97588.20
2018-10-09T11:30:04.289Z,97583.16
2018-10-09T11:32:31.665Z,97582.41
2018-10-09T11:34:59.013Z,97577.27
2018-10-09T11:37:26.391Z,97578.84
2018-10-09T11:39:53.676Z,97578.90
2018-10-09T11:42:21.156Z,97577.52
2018-10-09T11:44:48.631Z,97569.99
2018-10-09T11:47:16.049Z,97565.80
2018-10-09T11:49:43.518Z,97558.80
2018-10-09T11:52:10.916Z,97560.34
2018-10-09T11:54:38.269Z,97556.34
2018-10-09T11:57:05.685Z,97555.50
2018-10-09T11:59:33.006Z,97552.03
2018-10-09T12:02:00.471Z,97521.61
2018-10-09T12:04:27.882Z,97540.30
2018-10-09T12:06:55.282Z,97538.78
2018-10-09T12:09:22.664Z,97540.00
2018-10-09T12:11:50.162Z,97540.64
2018-10-09T12:14:17.466Z,97541.74
2018-10-09T12:16:44.946Z,97541.03
2018-10-09T12:19:12.334Z,97534.75
2018-10-09T12:21:39.820Z,97526.17
2018-10-09T12:24:07.185Z,97534.27
2018-10-09T12:26:34.580Z,97528.30
2018-10-09T12:29:01.933Z,97523.03
2018-10-09T12:31:29.586Z,97521.34
2018-10-09T12:33:56.974Z,97526.30
2018-10-09T12:36:24.650Z,97525.50
2018-10-09T12:38:52.025Z,97517.42
2018-10-09T12:41:19.511Z,97513.38
2018-10-09T12:43:46.938Z,97515.25
2018-10-09T12:46:14.379Z,97506.70
2018-10-09T12:48:41.769Z,97503.98
2018-10-09T12:51:09.212Z,97502.09
2018-10-09T12:53:36.575Z,97504.31
2018-10-09T12:56:03.992Z,97504.25
2018-10-09T12:58:31.387Z,97506.90
2018-10-09T13:00:58.790Z,97508.56
2018-10-09T13:03:26.222Z,97502.24
2018-10-09T13:05:53.784Z,97505.02
2018-10-09T13:08:21.524Z,97495.64
2018-10-09T13:10:49.006Z,97498.84
2018-10-09T13:13:16.513Z,97499.17
2018-10-09T13:15:43.903Z,97493.83
2018-10-09T13:18:11.294Z,97495.68
2018-10-09T13:20:38.732Z,97492.68
2018-10-09T13:23:07.487Z,97494.16
2018-10-09T13:25:35.090Z,97490.81
2018-10-09T13:28:02.525Z,97489.42
2018-10-09T13:30:30.036Z,97479.06
2018-10-09T13:32:57.478Z,97475.50
2018-10-09T13:35:25.173Z,97472.18
2018-10-09T13:37:52.742Z,97471.25
2018-10-09T13:40:20.272Z,97472.67
2018-10-09T13:42:47.877Z,97467.16
2018-10-09T13:45:15.388Z,97470.83
2018-10-09T13:47:42.992Z,97462.37
2018-10-09T13:50:10.423Z,97466.31
2018-10-09T13:52:37.914Z,97471.83
2018-10-09T13:55:05.592Z,97469.92
2018-10-09T13:57:33.046Z,97466.50
2018-10-09T14:00:00.484Z,97460.03
2018-10-09T14:02:27.964Z,97458.99
2018-10-09T14:04:55.426Z,97459.32
2018-10-09T14:07:22.876Z,97461.28
2018-10-09T14:09:50.354Z,97369.61
2018-10-09T14:12:17.789Z,97454.98
2018-10-09T14:14:45.194Z,97450.30
2018-10-09T14:17:12.858Z,97453.13
2018-10-09T14:19:40.248Z,97445.48
2018-10-09T14:22:07.729Z,97446.97
2018-10-09T14:24:35.516Z,97443.02
2018-10-09T14:27:03.147Z,97437.47
2018-10-09T14:29:30.541Z,97438.37
2018-10-09T14:31:58.309Z,97439.48
2018-10-09T14:34:27.842Z,97438.13
2018-10-09T14:36:55.940Z,97441.35
2018-10-09T14:39:39.458Z,97441.00
2018-10-09T14:42:12.556Z,97438.00
2018-10-09T14:44:40.264Z,97436.78
2018-10-09T14:47:07.742Z,97435.19
2018-10-09T14:49:35.244Z,97436.54
2018-10-09T14:52:02.771Z,97435.77
2018-10-09T14:54:30.326Z,97437.73
2018-10-09T14:56:57.824Z,97437.95
2018-10-09T14:59:25.315Z,97434.86
2018-10-09T15:01:52.683Z,97435.61
2018-10-09T15:04:20.255Z,97437.56
2018-10-09T15:06:47.822Z,97430.03
2018-10-09T15:09:15.337Z,97439.50
2018-10-09T15:11:43.486Z,97444.52
2018-10-09T15:14:11.238Z,97441.72
2018-10-09T15:16:38.850Z,97445.69
2018-10-09T15:19:07.100Z,97437.64
2018-10-09T15:21:34.718Z,97446.06
2018-10-09T15:24:02.190Z,97455.31
2018-10-09T15:26:29.673Z,97448.85
2018-10-09T15:28:57.314Z,97452.20
2018-10-09T15:31:24.746Z,97452.58
2018-10-09T15:33:52.195Z,97449.39
2018-10-09T15:36:19.752Z,97445.39
2018-10-09T15:38:47.782Z,97454.36
2018-10-09T15:41:15.307Z,97446.31
2018-10-09T15:43:42.672Z,97444.69
2018-10-09T15:46:10.090Z,97449.80
2018-10-09T15:48:37.588Z,97441.41
2018-10-09T15:51:05.082Z,97443.67
2018-10-09T15:53:32.533Z,97449.79
2018-10-09T15:56:00.067Z,97452.53
2018-10-09T15:58:28.358Z,97451.81
2018-10-09T16:00:55.736Z,97455.06
2018-10-09T16:03:23.871Z,97455.72
2018-10-09T16:05:51.837Z,97456.48
2018-10-09T16:08:19.282Z,97457.97
2018-10-09T16:10:46.800Z,97457.70
2018-10-09T16:13:14.226Z,97459.56
2018-10-09T16:15:41.701Z,97452.84
2018-10-09T16:18:09.286Z,97447.50
2018-10-09T16:20:36.800Z,97447.33
2018-10-09T16:23:04.135Z,97451.95
2018-10-09T16:25:31.562Z,97454.10
2018-10-09T16:27:59.146Z,97454.02
2018-10-09T16:30:26.660Z,97451.47
2018-10-09T16:32:54.293Z,97447.94
2018-10-09T16:35:21.742Z,97454.72
2018-10-09T16:37:49.189Z,97458.30
2018-10-09T16:40:16.661Z,97460.98
2018-10-09T16:42:44.121Z,97460.11
2018-10-09T16:45:11.493Z,97454.98
2018-10-09T16:47:38.920Z,97458.81
2018-10-09T16:50:06.291Z,97464.16
2018-10-09T16:52:33.690Z,97461.95
2018-10-09T16:55:01.052Z,97456.27
2018-10-09T16:57:28.550Z,97464.63
2018-10-09T16:59:56.024Z,97460.53
2018-10-09T17:02:23.491Z,97471.02
2018-10-09T17:04:50.944Z,97480.02
2018-10-09T17:07:18.778Z,97475.58
2018-10-09T17:09:46.284Z,97481.81
2018-10-09T17:12:13.799Z,97484.17
2018-10-09T17:14:41.269Z,97489.38
2018-10-09T17:17:08.705Z,97483.28
2018-10-09T17:19:36.248Z,97489.17
2018-10-09T17:22:03.766Z,97487.38
2018-10-09T17:24:31.431Z,97491.16
2018-10-09T17:26:58.941Z,97489.36
2018-10-09T17:29:26.610Z,97491.81
2018-10-09T17:31:54.228Z,97494.34
2018-10-09T17:34:21.660Z,97496.78
2018-10-09T17:36:51.551Z,97491.67
2018-10-09T17:39:19.120Z,97492.16
2018-10-09T17:41:46.693Z,97497.45
2018-10-09T17:44:14.167Z,97370.00
2018-10-09T17:46:41.671Z,97495.97
2018-10-09T17:49:09.115Z,97495.23
2018-10-09T17:51:36.514Z,97496.97
2018-10-09T17:54:03.914Z,97495.55
2018-10-09T17:56:31.425Z,97493.14
2018-10-09T17:58:58.847Z,97495.17
2018-10-09T18:01:26.324Z,97497.08
2018-10-09T18:03:53.818Z,97497.53
2018-10-09T18:06:21.270Z,97501.08
2018-10-09T18:08:48.864Z,97500.41
2018-10-09T18:11:16.386Z,97503.17
2018-10-09T18:13:44.044Z,97505.09
2018-10-09T18:16:11.531Z,97501.55
2018-10-09T18:18:39.036Z,97496.08
2018-10-09T18:21:06.617Z,97494.39
2018-10-09T18:23:33.989Z,97498.77
2018-10-09T18:26:01.866Z,97251.53
2018-10-09T18:28:29.452Z,97499.68
2018-10-09T18:30:57.232Z,97493.95
2018-10-09T18:33:24.667Z,97499.08
2018-10-09T18:35:52.201Z,97495.00
2018-10-09T18:51:14.322Z,97498.81
2018-10-09T18:53:42.044Z,97498.69
2018-10-09T18:56:09.615Z,97501.85
2018-10-09T18:58:37.172Z,97501.63
2018-10-09T19:01:04.829Z,97496.17
2018-10-09T19:03:32.413Z,97494.61
2018-10-09T19:05:59.992Z,97506.61
2018-10-09T19:08:27.528Z,97507.94
2018-10-09T19:10:55.087Z,97510.77
2018-10-09T19:13:22.602Z,97514.36
2018-10-09T19:15:50.092Z,97514.49
2018-10-09T19:18:17.672Z,97516.20
2018-10-09T19:20:45.177Z,97505.44
2018-10-09T19:23:12.838Z,97517.84
2018-10-09T19:25:40.355Z,97518.08
2018-10-09T19:28:08.459Z,97516.08
2018-10-09T19:30:36.230Z,97521.07
2018-10-09T19:33:03.768Z,97527.16
2018-10-09T19:35:31.350Z,97528.48
2018-10-09T19:37:58.783Z,97531.61
2018-10-09T19:40:26.276Z,97525.68
2018-10-09T19:42:53.823Z,97535.39
2018-10-09T19:45:21.392Z,97532.49
2018-10-09T19:47:48.832Z,97536.73
2018-10-09T19:50:16.237Z,97536.78
2018-10-09T19:52:43.710Z,97541.17
2018-10-09T19:55:11.198Z,97540.57
2018-10-09T19:57:38.577Z,97547.20
2018-10-09T20:00:07.075Z,97549.13
2018-10-09T20:02:34.478Z,97485.36
2018-10-09T20:05:02.134Z,97543.94
2018-10-09T20:07:29.557Z,97544.41
2018-10-09T20:09:57.058Z,97553.45
2018-10-09T20:12:24.710Z,97550.33
2018-10-09T20:14:53.462Z,97551.59
2018-10-09T20:17:21.166Z,97552.02
2018-10-09T20:19:48.588Z,97547.27
2018-10-09T20:22:16.126Z,97549.84
2018-10-09T20:24:43.660Z,97548.52
2018-10-09T20:27:11.156Z,97551.16
2018-10-09T20:29:38.683Z,97549.66
2018-10-09T20:32:06.365Z,97552.23
2018-10-09T20:34:33.894Z,97546.58
2018-10-09T20:37:01.464Z,97554.17
2018-10-09T20:39:29.373Z,97559.97
2018-10-09T20:41:56.913Z,97557.47
2018-10-09T20:44:24.262Z,97552.75
2018-10-09T20:46:51.752Z,97553.93
2018-10-09T20:49:19.194Z,97554.10
2018-10-09T20:51:46.638Z,97556.00
2018-10-09T20:54:14.053Z,97551.55
2018-10-09T20:56:41.515Z,97550.77
2018-10-09T20:59:09.044Z,97549.48
2018-10-09T21:01:36.582Z,97546.47
2018-10-09T21:04:04.049Z,97555.84
2018-10-09T21:06:31.617Z,97554.57
2018-10-09T21:08:58.988Z,97552.85
2018-10-09T21:11:26.273Z,97558.79
2018-10-09T21:13:53.753Z,97562.22
2018-10-09T21:16:21.049Z,97560.40
2018-10-09T21:18:48.359Z,97556.52
2018-10-09T21:21:15.779Z,97555.49
2018-10-09T21:23:43.002Z,97553.52
2018-10-09T21:26:10.449Z,97553.84
2018-10-09T21:28:37.724Z,97555.69
2018-10-09T21:31:05.144Z,97556.22
2018-10-09T21:33:32.448Z,97555.17
2018-10-09T21:35:59.723Z,97557.48
2018-10-09T21:38:27.147Z,97561.94
2018-10-09T21:40:54.432Z,97557.30
2018-10-09T21:43:21.817Z,97554.60
2018-10-09T21:45:49.168Z,97555.78
2018-10-09T21:48:16.434Z,97550.38
2018-10-09T21:50:43.755Z,97553.39
2018-10-09T21:53:11.226Z,97549.22
2018-10-09T21:55:38.623Z,97547.05
2018-10-09T21:58:05.970Z,97543.45
2018-10-09T22:00:38.983Z,97517.27
2018-10-09T22:03:06.265Z,97544.73
2018-10-09T22:05:33.569Z,97546.28
2018-10-09T22:08:00.816Z,97543.38
2018-10-09T22:10:28.055Z,97533.64
2018-10-09T22:12:55.695Z,97434.84
2018-10-09T22:15:22.915Z,97532.51
2018-10-09T22:17:50.251Z,97529.34
2018-10-09T22:20:17.553Z,97538.05
2018-10-09T22:22:44.853Z,97526.38
2018-10-09T22:25:12.141Z,97529.48
2018-10-09T22:27:39.485Z,97526.66
2018-10-09T22:30:06.822Z,97531.11
2018-10-09T22:32:34.080Z,97528.80
2018-10-09T22:35:01.660Z,97530.98
2018-10-09T22:37:28.981Z,97521.17
2018-10-09T22:39:56.377Z,97522.83
2018-10-09T22:42:23.621Z,97505.60
2018-10-09T22:44:50.893Z,97522.43
2018-10-09T22:47:18.147Z,97520.92
2018-10-09T22:49:45.406Z,97522.63
2018-10-09T22:52:12.688Z,97520.20
2018-10-09T22:54:39.945Z,97520.08
2018-10-09T22:57:07.244Z,97528.95
2018-10-09T22:59:34.522Z,97537.11
2018-10-09T23:02:01.807Z,97533.53
2018-10-09T23:04:29.073Z,97527.68
2018-10-09T23:06:56.383Z,97531.30
2018-10-09T23:09:23.596Z,97529.87
2018-10-09T23:11:50.844Z,97521.09
2018-10-09T23:14:18.118Z,97531.55
2018-10-09T23:16:45.372Z,97526.73
2018-10-09T23:19:12.632Z,97525.78
2018-10-09T23:21:39.921Z,97527.92
2018-10-09T23:24:07.232Z,97530.56
2018-10-09T23:26:34.507Z,97528.84
2018-10-09T23:29:01.812Z,97524.51
2018-10-09T23:31:29.172Z,97519.11
2018-10-09T23:33:56.439Z,97522.81
2018-10-09T23:36:23.730Z,97522.23
2018-10-09T23:38:50.989Z,97526.98
2018-10-09T23:41:18.183Z,97523.67
2018-10-09T23:43:45.605Z,97523.50
2018-10-09T23:46:12.904Z,97521.69
2018-10-09T23:48:40.215Z,97519.80
2018-10-09T23:51:07.501Z,97521.77
2018-10-09T23:53:34.924Z,97512.22
2018-10-09T23:56:02.184Z,97509.83
2018-10-09T23:58:29.422Z,97515.42
